sensor_id;sensor_type;location;lat;lon;timestamp;temperature;humidity
34492;DHT22;20737;49.908;8.126;2023-06-19T00:01:31;22.00;99.90
34492;DHT22;20737;49.908;8.126;2023-06-19T00:03:58;22.00;99.90
34492;DHT22;20737;49.908;8.126;2023-06-19T00:06:25;22.10;99.90
34492;DHT22;20737;49.908;8.126;2023-06-19T00:08:51;22.00;99.90
34492;DHT22;20737;49.908;8.126;2023-06-19T00:11:18;22.10;99.90
34492;DHT22;20737;49.908;8.126;2023-06-19T00:13:44;22.10;99.90
34492;DHT22;20737;49.908;8.126;2023-06-19T00:16:11;22.00;99.90
34492;DHT22;20737;49.908;8.126;2023-06-19T00:18:39;22.10;99.90
34492;DHT22;20737;49.908;8.126;2023-06-19T00:21:06;22.00;99.90
34492;DHT22;20737;49.908;8.126;2023-06-19T00:23:32;22.10;99.90
34492;DHT22;20737;49.908;8.126;2023-06-19T00:25:59;22.00;99.90
34492;DHT22;20737;49.908;8.126;2023-06-19T00:28:26;22.00;99.90
34492;DHT22;20737;49.908;8.126;2023-06-19T00:30:53;21.90;99.90
34492;DHT22;20737;49.908;8.126;2023-06-19T00:33:19;22.00;99.90
34492;DHT22;20737;49.908;8.126;2023-06-19T00:35:49;22.00;99.90
34492;DHT22;20737;49.908;8.126;2023-06-19T00:38:16;22.00;99.90
34492;DHT22;20737;49.908;8.126;2023-06-19T00:40:42;22.00;99.90
34492;DHT22;20737;49.908;8.126;2023-06-19T00:43:09;22.00;99.90
34492;DHT22;20737;49.908;8.126;2023-06-19T00:45:36;21.90;99.90
34492;DHT22;20737;49.908;8.126;2023-06-19T00:48:03;21.90;99.90
34492;DHT22;20737;49.908;8.126;2023-06-19T00:50:30;21.90;99.90
34492;DHT22;20737;49.908;8.126;2023-06-19T00:52:58;21.90;99.90
34492;DHT22;20737;49.908;8.126;2023-06-19T00:55:26;21.80;99.90
34492;DHT22;20737;49.908;8.126;2023-06-19T00:57:54;21.90;99.90
34492;DHT22;20737;49.908;8.126;2023-06-19T01:00:20;21.90;99.90
34492;DHT22;20737;49.908;8.126;2023-06-19T01:02:47;21.90;99.90
34492;DHT22;20737;49.908;8.126;2023-06-19T01:05:14;21.90;99.90
34492;DHT22;20737;49.908;8.126;2023-06-19T01:07:43;21.80;99.90
34492;DHT22;20737;49.908;8.126;2023-06-19T01:10:13;21.80;99.90
34492;DHT22;20737;49.908;8.126;2023-06-19T01:12:46;21.80;99.90
34492;DHT22;20737;49.908;8.126;2023-06-19T01:15:17;21.70;99.90
34492;DHT22;20737;49.908;8.126;2023-06-19T01:17:44;21.40;99.90
34492;DHT22;20737;49.908;8.126;2023-06-19T01:20:12;21.20;99.90
34492;DHT22;20737;49.908;8.126;2023-06-19T01:22:40;21.10;99.90
34492;DHT22;20737;49.908;8.126;2023-06-19T01:25:09;21.10;99.90
34492;DHT22;20737;49.908;8.126;2023-06-19T01:27:35;21.10;99.90
34492;DHT22;20737;49.908;8.126;2023-06-19T01:30:03;21.10;99.90
34492;DHT22;20737;49.908;8.126;2023-06-19T01:32:31;21.10;99.90
34492;DHT22;20737;49.908;8.126;2023-06-19T01:34:58;21.20;99.90
34492;DHT22;20737;49.908;8.126;2023-06-19T01:37:26;21.10;99.90
34492;DHT22;20737;49.908;8.126;2023-06-19T01:39:55;21.10;99.90
34492;DHT22;20737;49.908;8.126;2023-06-19T01:42:23;21.10;99.90
34492;DHT22;20737;49.908;8.126;2023-06-19T01:44:49;21.10;99.90
34492;DHT22;20737;49.908;8.126;2023-06-19T01:47:16;21.10;99.90
34492;DHT22;20737;49.908;8.126;2023-06-19T01:49:45;21.10;99.90
34492;DHT22;20737;49.908;8.126;2023-06-19T01:52:12;21.00;99.90
34492;DHT22;20737;49.908;8.126;2023-06-19T01:54:39;21.00;99.90
34492;DHT22;20737;49.908;8.126;2023-06-19T01:57:07;21.00;99.90
34492;DHT22;20737;49.908;8.126;2023-06-19T01:59:34;21.00;99.90
34492;DHT22;20737;49.908;8.126;2023-06-19T02:02:00;21.10;99.90
34492;DHT22;20737;49.908;8.126;2023-06-19T02:04:29;21.10;99.90
34492;DHT22;20737;49.908;8.126;2023-06-19T02:06:55;21.10;99.90
34492;DHT22;20737;49.908;8.126;2023-06-19T02:09:22;21.10;99.90
34492;DHT22;20737;49.908;8.126;2023-06-19T02:11:48;21.10;99.90
34492;DHT22;20737;49.908;8.126;2023-06-19T02:14:16;21.10;99.90
34492;DHT22;20737;49.908;8.126;2023-06-19T02:16:43;21.10;99.90
34492;DHT22;20737;49.908;8.126;2023-06-19T02:19:10;21.10;99.90
34492;DHT22;20737;49.908;8.126;2023-06-19T02:21:36;21.10;99.90
34492;DHT22;20737;49.908;8.126;2023-06-19T02:24:03;21.20;99.90
34492;DHT22;20737;49.908;8.126;2023-06-19T02:26:30;21.20;99.90
34492;DHT22;20737;49.908;8.126;2023-06-19T02:28:56;21.30;99.90
34492;DHT22;20737;49.908;8.126;2023-06-19T02:31:24;21.30;99.90
34492;DHT22;20737;49.908;8.126;2023-06-19T02:33:51;21.30;99.90
34492;DHT22;20737;49.908;8.126;2023-06-19T02:36:17;21.30;99.90
34492;DHT22;20737;49.908;8.126;2023-06-19T02:38:45;21.20;99.90
34492;DHT22;20737;49.908;8.126;2023-06-19T02:41:11;21.20;99.90
34492;DHT22;20737;49.908;8.126;2023-06-19T02:43:39;21.20;99.90
34492;DHT22;20737;49.908;8.126;2023-06-19T02:46:05;21.20;99.90
34492;DHT22;20737;49.908;8.126;2023-06-19T02:48:33;21.20;99.90
34492;DHT22;20737;49.908;8.126;2023-06-19T02:51:05;21.10;99.90
34492;DHT22;20737;49.908;8.126;2023-06-19T02:53:32;21.10;99.90
34492;DHT22;20737;49.908;8.126;2023-06-19T02:55:58;21.10;99.90
34492;DHT22;20737;49.908;8.126;2023-06-19T02:58:26;21.20;99.90
34492;DHT22;20737;49.908;8.126;2023-06-19T03:00:53;21.20;99.90
34492;DHT22;20737;49.908;8.126;2023-06-19T03:03:20;21.20;99.90
34492;DHT22;20737;49.908;8.126;2023-06-19T03:05:49;21.20;99.90
34492;DHT22;20737;49.908;8.126;2023-06-19T03:08:16;21.20;99.90
34492;DHT22;20737;49.908;8.126;2023-06-19T03:10:42;21.20;99.90
34492;DHT22;20737;49.908;8.126;2023-06-19T03:13:10;21.20;99.90
34492;DHT22;20737;49.908;8.126;2023-06-19T03:15:36;21.30;99.90
34492;DHT22;20737;49.908;8.126;2023-06-19T03:18:03;21.40;99.90
34492;DHT22;20737;49.908;8.126;2023-06-19T03:20:32;21.40;99.90
34492;DHT22;20737;49.908;8.126;2023-06-19T03:22:59;21.50;99.90
34492;DHT22;20737;49.908;8.126;2023-06-19T03:25:26;21.50;99.90
34492;DHT22;20737;49.908;8.126;2023-06-19T03:27:58;21.50;99.90
34492;DHT22;20737;49.908;8.126;2023-06-19T03:30:25;21.50;99.90
34492;DHT22;20737;49.908;8.126;2023-06-19T03:32:52;21.50;99.90
34492;DHT22;20737;49.908;8.126;2023-06-19T03:35:18;21.50;99.90
34492;DHT22;20737;49.908;8.126;2023-06-19T03:37:45;21.50;99.90
34492;DHT22;20737;49.908;8.126;2023-06-19T03:40:13;21.50;99.90
34492;DHT22;20737;49.908;8.126;2023-06-19T03:42:39;21.50;99.90
34492;DHT22;20737;49.908;8.126;2023-06-19T03:45:06;21.40;99.90
34492;DHT22;20737;49.908;8.126;2023-06-19T03:47:33;21.40;99.90
34492;DHT22;20737;49.908;8.126;2023-06-19T03:49:59;21.40;99.90
34492;DHT22;20737;49.908;8.126;2023-06-19T03:52:26;21.40;99.90
34492;DHT22;20737;49.908;8.126;2023-06-19T03:54:52;21.40;99.90
34492;DHT22;20737;49.908;8.126;2023-06-19T03:57:20;21.30;99.90
34492;DHT22;20737;49.908;8.126;2023-06-19T03:59:47;21.30;99.90
34492;DHT22;20737;49.908;8.126;2023-06-19T04:02:14;21.30;99.90
34492;DHT22;20737;49.908;8.126;2023-06-19T04:04:40;21.20;99.90
34492;DHT22;20737;49.908;8.126;2023-06-19T04:07:07;21.20;99.90
34492;DHT22;20737;49.908;8.126;2023-06-19T04:09:33;21.10;99.90
34492;DHT22;20737;49.908;8.126;2023-06-19T04:12:00;21.10;99.90
34492;DHT22;20737;49.908;8.126;2023-06-19T04:14:28;21.10;99.90
34492;DHT22;20737;49.908;8.126;2023-06-19T04:16:54;21.20;99.90
34492;DHT22;20737;49.908;8.126;2023-06-19T04:19:21;21.20;99.90
34492;DHT22;20737;49.908;8.126;2023-06-19T04:21:47;21.20;99.90
34492;DHT22;20737;49.908;8.126;2023-06-19T04:24:14;21.20;99.90
34492;DHT22;20737;49.908;8.126;2023-06-19T04:26:41;21.20;99.90
34492;DHT22;20737;49.908;8.126;2023-06-19T04:29:07;21.20;99.90
34492;DHT22;20737;49.908;8.126;2023-06-19T04:31:43;21.40;99.90
34492;DHT22;20737;49.908;8.126;2023-06-19T04:34:12;21.50;99.90
34492;DHT22;20737;49.908;8.126;2023-06-19T04:36:39;21.50;99.90
34492;DHT22;20737;49.908;8.126;2023-06-19T04:39:08;21.60;99.90
34492;DHT22;20737;49.908;8.126;2023-06-19T04:41:36;21.70;99.90
34492;DHT22;20737;49.908;8.126;2023-06-19T04:44:04;21.80;99.90
34492;DHT22;20737;49.908;8.126;2023-06-19T04:46:30;21.80;99.90
34492;DHT22;20737;49.908;8.126;2023-06-19T04:48:58;21.90;99.90
34492;DHT22;20737;49.908;8.126;2023-06-19T04:51:25;22.00;99.90
34492;DHT22;20737;49.908;8.126;2023-06-19T04:53:51;21.90;99.90
34492;DHT22;20737;49.908;8.126;2023-06-19T04:56:18;21.90;99.90
34492;DHT22;20737;49.908;8.126;2023-06-19T04:58:45;22.00;99.90
34492;DHT22;20737;49.908;8.126;2023-06-19T05:01:12;22.00;99.90
34492;DHT22;20737;49.908;8.126;2023-06-19T05:03:39;22.00;99.90
34492;DHT22;20737;49.908;8.126;2023-06-19T05:06:07;22.00;99.90
34492;DHT22;20737;49.908;8.126;2023-06-19T05:08:33;21.90;99.90
34492;DHT22;20737;49.908;8.126;2023-06-19T05:11:00;22.00;99.90
34492;DHT22;20737;49.908;8.126;2023-06-19T05:13:27;21.90;99.90
34492;DHT22;20737;49.908;8.126;2023-06-19T05:15:55;21.90;99.90
34492;DHT22;20737;49.908;8.126;2023-06-19T05:18:22;21.90;99.90
34492;DHT22;20737;49.908;8.126;2023-06-19T05:20:48;22.10;99.90
34492;DHT22;20737;49.908;8.126;2023-06-19T05:23:16;22.10;99.90
34492;DHT22;20737;49.908;8.126;2023-06-19T05:25:43;22.10;99.90
34492;DHT22;20737;49.908;8.126;2023-06-19T05:28:10;22.20;99.90
34492;DHT22;20737;49.908;8.126;2023-06-19T05:30:37;22.20;99.90
34492;DHT22;20737;49.908;8.126;2023-06-19T05:33:03;22.30;99.90
34492;DHT22;20737;49.908;8.126;2023-06-19T05:35:30;22.40;99.90
34492;DHT22;20737;49.908;8.126;2023-06-19T05:37:57;22.40;99.90
34492;DHT22;20737;49.908;8.126;2023-06-19T05:40:25;22.50;99.90
34492;DHT22;20737;49.908;8.126;2023-06-19T05:42:51;22.60;99.90
34492;DHT22;20737;49.908;8.126;2023-06-19T05:45:18;22.80;99.90
34492;DHT22;20737;49.908;8.126;2023-06-19T05:47:44;22.90;99.90
34492;DHT22;20737;49.908;8.126;2023-06-19T05:50:11;23.10;99.90
34492;DHT22;20737;49.908;8.126;2023-06-19T05:52:37;23.10;99.90
34492;DHT22;20737;49.908;8.126;2023-06-19T05:55:08;23.30;99.90
34492;DHT22;20737;49.908;8.126;2023-06-19T05:57:36;23.50;99.90
34492;DHT22;20737;49.908;8.126;2023-06-19T06:00:03;23.50;99.90
34492;DHT22;20737;49.908;8.126;2023-06-19T06:02:31;23.50;99.90
34492;DHT22;20737;49.908;8.126;2023-06-19T06:04:57;23.50;99.90
34492;DHT22;20737;49.908;8.126;2023-06-19T06:07:24;23.60;99.90
34492;DHT22;20737;49.908;8.126;2023-06-19T06:09:52;23.60;99.90
34492;DHT22;20737;49.908;8.126;2023-06-19T06:12:19;23.40;99.90
34492;DHT22;20737;49.908;8.126;2023-06-19T06:14:47;23.30;99.90
34492;DHT22;20737;49.908;8.126;2023-06-19T06:17:13;23.40;99.90
34492;DHT22;20737;49.908;8.126;2023-06-19T06:19:40;23.60;99.90
34492;DHT22;20737;49.908;8.126;2023-06-19T06:22:07;23.80;99.90
34492;DHT22;20737;49.908;8.126;2023-06-19T06:24:33;24.00;99.90
34492;DHT22;20737;49.908;8.126;2023-06-19T06:27:00;24.10;99.90
34492;DHT22;20737;49.908;8.126;2023-06-19T06:29:26;24.10;99.90
34492;DHT22;20737;49.908;8.126;2023-06-19T06:32:02;24.10;99.90
34492;DHT22;20737;49.908;8.126;2023-06-19T06:34:28;24.30;99.90
34492;DHT22;20737;49.908;8.126;2023-06-19T06:36:55;24.50;99.90
34492;DHT22;20737;49.908;8.126;2023-06-19T06:39:21;24.70;99.90
34492;DHT22;20737;49.908;8.126;2023-06-19T06:41:48;24.90;99.90
34492;DHT22;20737;49.908;8.126;2023-06-19T06:44:15;25.00;99.90
34492;DHT22;20737;49.908;8.126;2023-06-19T06:46:41;25.40;99.90
34492;DHT22;20737;49.908;8.126;2023-06-19T06:49:09;25.70;99.90
34492;DHT22;20737;49.908;8.126;2023-06-19T06:51:36;25.90;99.90
34492;DHT22;20737;49.908;8.126;2023-06-19T06:54:02;26.00;99.90
34492;DHT22;20737;49.908;8.126;2023-06-19T06:56:29;26.40;99.90
34492;DHT22;20737;49.908;8.126;2023-06-19T06:58:56;26.60;99.90
34492;DHT22;20737;49.908;8.126;2023-06-19T07:01:22;26.80;99.90
34492;DHT22;20737;49.908;8.126;2023-06-19T07:03:49;26.70;99.90
34492;DHT22;20737;49.908;8.126;2023-06-19T07:06:17;26.60;99.90
34492;DHT22;20737;49.908;8.126;2023-06-19T07:08:43;26.40;99.90
34492;DHT22;20737;49.908;8.126;2023-06-19T07:11:12;25.80;99.90
34492;DHT22;20737;49.908;8.126;2023-06-19T07:13:39;25.50;99.90
34492;DHT22;20737;49.908;8.126;2023-06-19T07:16:06;25.60;99.90
34492;DHT22;20737;49.908;8.126;2023-06-19T07:18:33;25.70;99.90
34492;DHT22;20737;49.908;8.126;2023-06-19T07:21:00;26.10;99.90
34492;DHT22;20737;49.908;8.126;2023-06-19T07:23:29;26.50;99.90
34492;DHT22;20737;49.908;8.126;2023-06-19T07:25:55;26.90;99.90
34492;DHT22;20737;49.908;8.126;2023-06-19T07:28:22;27.70;99.90
34492;DHT22;20737;49.908;8.126;2023-06-19T07:30:49;28.10;99.90
34492;DHT22;20737;49.908;8.126;2023-06-19T07:33:17;28.40;99.90
34492;DHT22;20737;49.908;8.126;2023-06-19T07:35:44;28.30;99.90
34492;DHT22;20737;49.908;8.126;2023-06-19T07:38:10;28.40;99.90
34492;DHT22;20737;49.908;8.126;2023-06-19T07:40:38;28.20;99.90
34492;DHT22;20737;49.908;8.126;2023-06-19T07:43:05;28.40;99.90
34492;DHT22;20737;49.908;8.126;2023-06-19T07:45:31;28.60;99.90
34492;DHT22;20737;49.908;8.126;2023-06-19T07:47:58;28.40;99.90
34492;DHT22;20737;49.908;8.126;2023-06-19T07:50:24;28.20;99.90
34492;DHT22;20737;49.908;8.126;2023-06-19T07:52:51;28.10;99.90
34492;DHT22;20737;49.908;8.126;2023-06-19T07:55:17;27.70;99.90
34492;DHT22;20737;49.908;8.126;2023-06-19T07:57:45;27.40;99.90
34492;DHT22;20737;49.908;8.126;2023-06-19T08:00:12;27.80;99.90
34492;DHT22;20737;49.908;8.126;2023-06-19T08:02:40;28.50;99.90
34492;DHT22;20737;49.908;8.126;2023-06-19T08:05:07;28.50;99.90
34492;DHT22;20737;49.908;8.126;2023-06-19T08:07:34;28.80;99.90
34492;DHT22;20737;49.908;8.126;2023-06-19T08:10:00;29.10;99.20
34492;DHT22;20737;49.908;8.126;2023-06-19T08:12:29;28.90;99.90
34492;DHT22;20737;49.908;8.126;2023-06-19T08:14:57;29.00;99.90
34492;DHT22;20737;49.908;8.126;2023-06-19T08:17:23;28.90;99.90
34492;DHT22;20737;49.908;8.126;2023-06-19T08:19:50;28.70;99.90
34492;DHT22;20737;49.908;8.126;2023-06-19T08:22:16;28.90;99.90
34492;DHT22;20737;49.908;8.126;2023-06-19T08:24:43;28.80;99.50
34492;DHT22;20737;49.908;8.126;2023-06-19T08:27:09;29.00;98.90
34492;DHT22;20737;49.908;8.126;2023-06-19T08:29:36;29.10;99.40
34492;DHT22;20737;49.908;8.126;2023-06-19T08:32:04;29.50;98.10
34492;DHT22;20737;49.908;8.126;2023-06-19T08:34:31;29.60;98.40
34492;DHT22;20737;49.908;8.126;2023-06-19T08:36:58;30.20;97.40
34492;DHT22;20737;49.908;8.126;2023-06-19T08:39:24;30.30;97.30
34492;DHT22;20737;49.908;8.126;2023-06-19T08:41:51;29.80;96.70
34492;DHT22;20737;49.908;8.126;2023-06-19T08:44:18;29.60;96.60
34492;DHT22;20737;49.908;8.126;2023-06-19T08:46:45;29.80;96.50
34492;DHT22;20737;49.908;8.126;2023-06-19T08:49:13;30.00;96.50
34492;DHT22;20737;49.908;8.126;2023-06-19T08:51:40;29.80;96.30
34492;DHT22;20737;49.908;8.126;2023-06-19T08:54:07;30.00;96.10
34492;DHT22;20737;49.908;8.126;2023-06-19T08:56:34;29.60;95.90
34492;DHT22;20737;49.908;8.126;2023-06-19T08:59:09;29.30;96.30
34492;DHT22;20737;49.908;8.126;2023-06-19T09:01:36;28.80;97.70
34492;DHT22;20737;49.908;8.126;2023-06-19T09:04:09;28.90;97.00
34492;DHT22;20737;49.908;8.126;2023-06-19T09:06:37;29.50;97.10
34492;DHT22;20737;49.908;8.126;2023-06-19T09:09:13;30.10;96.90
34492;DHT22;20737;49.908;8.126;2023-06-19T09:11:40;30.10;95.10
34492;DHT22;20737;49.908;8.126;2023-06-19T09:14:08;29.90;95.60
34492;DHT22;20737;49.908;8.126;2023-06-19T09:16:36;29.40;95.90
34492;DHT22;20737;49.908;8.126;2023-06-19T09:19:03;28.90;97.10
34492;DHT22;20737;49.908;8.126;2023-06-19T09:21:29;29.70;96.90
34492;DHT22;20737;49.908;8.126;2023-06-19T09:24:03;30.10;95.40
34492;DHT22;20737;49.908;8.126;2023-06-19T09:26:29;30.00;94.50
34492;DHT22;20737;49.908;8.126;2023-06-19T09:28:56;29.90;94.90
34492;DHT22;20737;49.908;8.126;2023-06-19T09:31:31;29.60;94.10
34492;DHT22;20737;49.908;8.126;2023-06-19T09:33:57;29.00;94.00
34492;DHT22;20737;49.908;8.126;2023-06-19T09:36:24;29.20;94.90
34492;DHT22;20737;49.908;8.126;2023-06-19T09:38:52;29.90;94.20
34492;DHT22;20737;49.908;8.126;2023-06-19T09:41:22;30.20;93.60
34492;DHT22;20737;49.908;8.126;2023-06-19T09:43:50;30.50;92.20
34492;DHT22;20737;49.908;8.126;2023-06-19T09:46:20;29.80;92.40
34492;DHT22;20737;49.908;8.126;2023-06-19T09:48:48;29.80;92.40
34492;DHT22;20737;49.908;8.126;2023-06-19T09:51:20;29.20;91.70
34492;DHT22;20737;49.908;8.126;2023-06-19T09:53:47;28.60;93.90
34492;DHT22;20737;49.908;8.126;2023-06-19T09:56:14;28.30;94.60
34492;DHT22;20737;49.908;8.126;2023-06-19T09:58:43;28.10;94.50
34492;DHT22;20737;49.908;8.126;2023-06-19T10:01:10;27.70;95.20
34492;DHT22;20737;49.908;8.126;2023-06-19T10:03:38;28.20;95.60
34492;DHT22;20737;49.908;8.126;2023-06-19T10:06:06;29.00;94.90
34492;DHT22;20737;49.908;8.126;2023-06-19T10:08:38;29.70;93.70
34492;DHT22;20737;49.908;8.126;2023-06-19T10:11:04;30.30;92.00
34492;DHT22;20737;49.908;8.126;2023-06-19T10:13:31;30.10;92.00
34492;DHT22;20737;49.908;8.126;2023-06-19T10:16:00;30.40;92.10
34492;DHT22;20737;49.908;8.126;2023-06-19T10:18:27;30.30;92.10
34492;DHT22;20737;49.908;8.126;2023-06-19T10:20:53;30.60;89.60
34492;DHT22;20737;49.908;8.126;2023-06-19T10:23:21;30.70;90.70
34492;DHT22;20737;49.908;8.126;2023-06-19T10:25:54;30.60;90.40
34492;DHT22;20737;49.908;8.126;2023-06-19T10:28:22;30.80;90.50
34492;DHT22;20737;49.908;8.126;2023-06-19T10:30:52;31.50;88.60
34492;DHT22;20737;49.908;8.126;2023-06-19T10:33:21;31.50;88.80
34492;DHT22;20737;49.908;8.126;2023-06-19T10:35:47;30.60;90.20
34492;DHT22;20737;49.908;8.126;2023-06-19T10:38:14;29.70;92.10
34492;DHT22;20737;49.908;8.126;2023-06-19T10:40:41;30.00;92.50
34492;DHT22;20737;49.908;8.126;2023-06-19T10:43:07;29.90;91.70
34492;DHT22;20737;49.908;8.126;2023-06-19T10:45:34;29.40;91.40
34492;DHT22;20737;49.908;8.126;2023-06-19T10:48:01;29.00;92.40
34492;DHT22;20737;49.908;8.126;2023-06-19T10:50:30;28.90;93.50
34492;DHT22;20737;49.908;8.126;2023-06-19T10:53:00;29.40;93.80
34492;DHT22;20737;49.908;8.126;2023-06-19T10:55:26;29.40;92.70
34492;DHT22;20737;49.908;8.126;2023-06-19T10:57:53;29.50;93.30
34492;DHT22;20737;49.908;8.126;2023-06-19T11:00:23;29.50;92.10
34492;DHT22;20737;49.908;8.126;2023-06-19T11:02:50;29.30;93.40
34492;DHT22;20737;49.908;8.126;2023-06-19T11:05:18;29.60;92.60
34492;DHT22;20737;49.908;8.126;2023-06-19T11:07:51;29.50;92.50
34492;DHT22;20737;49.908;8.126;2023-06-19T11:10:21;29.70;92.00
34492;DHT22;20737;49.908;8.126;2023-06-19T11:12:47;30.40;91.20
34492;DHT22;20737;49.908;8.126;2023-06-19T11:15:14;30.80;90.80
34492;DHT22;20737;49.908;8.126;2023-06-19T11:17:41;31.50;90.30
34492;DHT22;20737;49.908;8.126;2023-06-19T11:20:09;31.20;89.00
34492;DHT22;20737;49.908;8.126;2023-06-19T11:22:36;31.30;88.80
34492;DHT22;20737;49.908;8.126;2023-06-19T11:25:06;31.20;87.00
34492;DHT22;20737;49.908;8.126;2023-06-19T11:27:33;31.70;89.30
34492;DHT22;20737;49.908;8.126;2023-06-19T11:30:00;31.60;85.30
34492;DHT22;20737;49.908;8.126;2023-06-19T11:32:30;31.80;83.50
34492;DHT22;20737;49.908;8.126;2023-06-19T11:34:56;31.00;85.70
34492;DHT22;20737;49.908;8.126;2023-06-19T11:37:23;31.70;85.80
34492;DHT22;20737;49.908;8.126;2023-06-19T11:39:50;31.20;84.00
34492;DHT22;20737;49.908;8.126;2023-06-19T11:42:19;31.70;85.40
34492;DHT22;20737;49.908;8.126;2023-06-19T11:44:54;32.10;83.00
34492;DHT22;20737;49.908;8.126;2023-06-19T11:47:21;31.90;81.80
34492;DHT22;20737;49.908;8.126;2023-06-19T11:49:48;31.70;79.30
34492;DHT22;20737;49.908;8.126;2023-06-19T11:52:15;31.80;79.80
34492;DHT22;20737;49.908;8.126;2023-06-19T11:54:42;31.30;80.60
34492;DHT22;20737;49.908;8.126;2023-06-19T11:57:08;31.50;80.50
34492;DHT22;20737;49.908;8.126;2023-06-19T11:59:38;32.00;80.00
34492;DHT22;20737;49.908;8.126;2023-06-19T12:02:05;32.50;79.70
34492;DHT22;20737;49.908;8.126;2023-06-19T12:04:32;32.20;76.70
34492;DHT22;20737;49.908;8.126;2023-06-19T12:06:59;32.30;77.60
34492;DHT22;20737;49.908;8.126;2023-06-19T12:09:25;31.50;78.00
34492;DHT22;20737;49.908;8.126;2023-06-19T12:11:52;31.10;80.00
34492;DHT22;20737;49.908;8.126;2023-06-19T12:14:21;31.20;80.40
34492;DHT22;20737;49.908;8.126;2023-06-19T12:16:51;31.30;78.80
34492;DHT22;20737;49.908;8.126;2023-06-19T12:19:17;31.30;76.10
34492;DHT22;20737;49.908;8.126;2023-06-19T12:21:44;31.60;78.20
34492;DHT22;20737;49.908;8.126;2023-06-19T12:24:11;31.30;76.60
34492;DHT22;20737;49.908;8.126;2023-06-19T12:26:37;31.40;76.90
34492;DHT22;20737;49.908;8.126;2023-06-19T12:29:05;31.50;76.90
34492;DHT22;20737;49.908;8.126;2023-06-19T12:31:32;31.70;75.20
34492;DHT22;20737;49.908;8.126;2023-06-19T12:34:00;31.50;74.80
34492;DHT22;20737;49.908;8.126;2023-06-19T12:36:27;31.50;73.70
34492;DHT22;20737;49.908;8.126;2023-06-19T12:38:54;31.70;75.70
34492;DHT22;20737;49.908;8.126;2023-06-19T12:41:20;32.20;72.80
34492;DHT22;20737;49.908;8.126;2023-06-19T12:43:47;32.20;74.40
34492;DHT22;20737;49.908;8.126;2023-06-19T12:46:14;32.00;72.40
34492;DHT22;20737;49.908;8.126;2023-06-19T12:48:40;31.70;71.00
34492;DHT22;20737;49.908;8.126;2023-06-19T12:51:08;32.30;70.80
34492;DHT22;20737;49.908;8.126;2023-06-19T12:53:35;32.10;70.20
34492;DHT22;20737;49.908;8.126;2023-06-19T12:56:01;32.30;71.10
34492;DHT22;20737;49.908;8.126;2023-06-19T12:58:28;32.60;69.50
34492;DHT22;20737;49.908;8.126;2023-06-19T13:00:55;32.30;71.30
34492;DHT22;20737;49.908;8.126;2023-06-19T13:03:21;31.60;71.50
34492;DHT22;20737;49.908;8.126;2023-06-19T13:05:48;31.70;72.30
34492;DHT22;20737;49.908;8.126;2023-06-19T13:08:16;31.30;72.80
34492;DHT22;20737;49.908;8.126;2023-06-19T13:10:42;31.30;72.50
34492;DHT22;20737;49.908;8.126;2023-06-19T13:13:09;31.50;72.90
34492;DHT22;20737;49.908;8.126;2023-06-19T13:15:36;30.80;69.50
34492;DHT22;20737;49.908;8.126;2023-06-19T13:18:03;30.80;72.90
34492;DHT22;20737;49.908;8.126;2023-06-19T13:20:29;30.60;75.80
34492;DHT22;20737;49.908;8.126;2023-06-19T13:22:57;30.80;76.10
34492;DHT22;20737;49.908;8.126;2023-06-19T13:25:25;31.00;75.20
34492;DHT22;20737;49.908;8.126;2023-06-19T13:27:55;30.90;73.50
34492;DHT22;20737;49.908;8.126;2023-06-19T13:30:22;31.00;74.40
34492;DHT22;20737;49.908;8.126;2023-06-19T13:32:48;31.00;73.70
34492;DHT22;20737;49.908;8.126;2023-06-19T13:35:15;31.00;72.00
34492;DHT22;20737;49.908;8.126;2023-06-19T13:37:41;30.90;73.50
34492;DHT22;20737;49.908;8.126;2023-06-19T13:40:08;31.10;72.60
34492;DHT22;20737;49.908;8.126;2023-06-19T13:42:36;31.30;72.50
34492;DHT22;20737;49.908;8.126;2023-06-19T13:45:04;31.60;71.60
34492;DHT22;20737;49.908;8.126;2023-06-19T13:47:30;31.60;69.50
34492;DHT22;20737;49.908;8.126;2023-06-19T13:49:57;31.70;70.50
34492;DHT22;20737;49.908;8.126;2023-06-19T13:52:24;32.10;69.60
34492;DHT22;20737;49.908;8.126;2023-06-19T13:54:50;32.40;67.90
34492;DHT22;20737;49.908;8.126;2023-06-19T13:57:17;32.40;65.70
34492;DHT22;20737;49.908;8.126;2023-06-19T13:59:45;32.50;67.50
34492;DHT22;20737;49.908;8.126;2023-06-19T14:02:14;32.90;67.50
34492;DHT22;20737;49.908;8.126;2023-06-19T14:04:40;32.50;66.30
34492;DHT22;20737;49.908;8.126;2023-06-19T14:07:07;32.10;67.40
34492;DHT22;20737;49.908;8.126;2023-06-19T14:09:33;31.90;66.70
34492;DHT22;20737;49.908;8.126;2023-06-19T14:12:00;31.50;66.80
34492;DHT22;20737;49.908;8.126;2023-06-19T14:14:27;31.20;67.40
34492;DHT22;20737;49.908;8.126;2023-06-19T14:16:55;31.30;66.60
34492;DHT22;20737;49.908;8.126;2023-06-19T14:19:23;31.50;66.90
34492;DHT22;20737;49.908;8.126;2023-06-19T14:21:49;31.60;66.20
34492;DHT22;20737;49.908;8.126;2023-06-19T14:24:16;31.30;67.90
34492;DHT22;20737;49.908;8.126;2023-06-19T14:26:43;31.10;67.60
34492;DHT22;20737;49.908;8.126;2023-06-19T14:29:09;31.00;67.90
34492;DHT22;20737;49.908;8.126;2023-06-19T14:31:36;31.10;67.80
34492;DHT22;20737;49.908;8.126;2023-06-19T14:34:04;31.10;69.10
34492;DHT22;20737;49.908;8.126;2023-06-19T14:36:30;31.30;68.50
34492;DHT22;20737;49.908;8.126;2023-06-19T14:38:57;31.10;69.10
34492;DHT22;20737;49.908;8.126;2023-06-19T14:41:24;30.70;69.00
34492;DHT22;20737;49.908;8.126;2023-06-19T14:43:50;30.50;69.50
34492;DHT22;20737;49.908;8.126;2023-06-19T14:46:17;30.40;69.00
34492;DHT22;20737;49.908;8.126;2023-06-19T14:48:43;30.40;70.50
34492;DHT22;20737;49.908;8.126;2023-06-19T14:51:11;30.50;71.00
34492;DHT22;20737;49.908;8.126;2023-06-19T14:53:38;30.40;70.40
34492;DHT22;20737;49.908;8.126;2023-06-19T14:56:04;30.40;72.10
34492;DHT22;20737;49.908;8.126;2023-06-19T14:58:32;30.10;73.20
34492;DHT22;20737;49.908;8.126;2023-06-19T15:00:58;30.10;72.00
34492;DHT22;20737;49.908;8.126;2023-06-19T15:03:25;29.90;72.50
34492;DHT22;20737;49.908;8.126;2023-06-19T15:05:52;29.70;72.00
34492;DHT22;20737;49.908;8.126;2023-06-19T15:08:20;29.80;73.00
34492;DHT22;20737;49.908;8.126;2023-06-19T15:10:49;29.90;74.20
34492;DHT22;20737;49.908;8.126;2023-06-19T15:13:15;29.90;73.80
34492;DHT22;20737;49.908;8.126;2023-06-19T15:15:42;29.90;73.70
34492;DHT22;20737;49.908;8.126;2023-06-19T15:18:09;29.70;73.20
34492;DHT22;20737;49.908;8.126;2023-06-19T15:20:35;29.50;74.50
34492;DHT22;20737;49.908;8.126;2023-06-19T15:23:03;29.40;75.20
34492;DHT22;20737;49.908;8.126;2023-06-19T15:25:31;29.10;75.30
34492;DHT22;20737;49.908;8.126;2023-06-19T15:27:58;29.30;76.80
34492;DHT22;20737;49.908;8.126;2023-06-19T15:30:24;29.30;76.00